Time;durP1;ratioP1;P1;durP2;ratioP2;P2;SDS_P1;SDS_P2;PMS_P1;PMS_P2;Temp;Humidity;BMP_temperature;BMP_pressure;BME280_temperature;BME280_humidity;BME280_pressure;Samples;Min_cycle;Max_cycle;Signal;HPM_P1;HPM_P2
2022/04/30 00:02:24;;;;;;;9.50;5.10;;;18.00;99.90;;;;;;5006568;28;20038;-73
2022/04/30 00:04:51;;;;;;;7.20;4.60;;;18.00;99.90;;;;;;5023389;28;20133;-74
2022/04/30 00:07:20;;;;;;;10.13;4.88;;;18.00;99.90;;;;;;5023113;28;20061;-74
2022/04/30 00:09:48;;;;;;;11.63;4.70;;;18.00;99.90;;;;;;5003435;28;20042;-73
2022/04/30 00:12:16;;;;;;;8.18;4.65;;;17.90;99.90;;;;;;5019738;28;20702;-74
2022/04/30 00:14:44;;;;;;;8.02;4.65;;;17.90;99.90;;;;;;5001762;28;20063;-74
2022/04/30 00:17:10;;;;;;;7.35;4.35;;;17.90;99.90;;;;;;5021957;28;20444;-73
2022/04/30 00:19:37;;;;;;;6.97;5.00;;;17.90;99.90;;;;;;5020471;28;20540;-74
2022/04/30 00:22:03;;;;;;;13.60;5.10;;;17.90;99.90;;;;;;5000569;28;20072;-74
2022/04/30 00:24:30;;;;;;;9.20;4.60;;;17.90;99.90;;;;;;5005779;28;20465;-74
2022/04/30 00:26:57;;;;;;;5.80;3.47;;;17.90;99.90;;;;;;5009863;28;20092;-73
2022/04/30 00:29:23;;;;;;;4.63;3.53;;;18.10;99.90;;;;;;5001710;28;20049;-73
2022/04/30 00:31:50;;;;;;;5.45;3.45;;;18.10;99.90;;;;;;5008142;28;20037;-74
2022/04/30 00:34:17;;;;;;;6.57;3.78;;;18.10;99.90;;;;;;5021518;28;20041;-73
2022/04/30 00:36:43;;;;;;;5.47;3.83;;;18.10;99.90;;;;;;5022857;28;20049;-74
2022/04/30 00:39:09;;;;;;;7.60;3.50;;;18.00;99.90;;;;;;5023096;28;20034;-74
2022/04/30 00:41:40;;;;;;;5.63;4.03;;;18.00;99.90;;;;;;5004937;28;20147;-74
2022/04/30 00:44:09;;;;;;;7.45;3.92;;;17.90;99.90;;;;;;5004962;28;20038;-73
2022/04/30 00:46:34;;;;;;;6.30;3.95;;;17.90;99.90;;;;;;5022473;28;20037;-74
2022/04/30 00:49:01;;;;;;;6.13;4.00;;;17.90;99.90;;;;;;5019629;28;20042;-74
2022/04/30 00:51:28;;;;;;;6.40;3.65;;;17.90;99.90;;;;;;5006019;28;20039;-75
2022/04/30 00:53:56;;;;;;;5.07;3.78;;;17.90;99.90;;;;;;5020033;28;20104;-73
2022/04/30 00:56:38;;;;;;;5.75;3.80;;;17.90;99.90;;;;;;4997406;28;20473;-74
2022/04/30 00:59:06;;;;;;;5.10;3.50;;;18.00;99.90;;;;;;5021412;28;20111;-73
2022/04/30 01:01:34;;;;;;;6.57;3.13;;;18.10;99.90;;;;;;5009410;28;20088;-73
2022/04/30 01:04:01;;;;;;;6.22;3.40;;;18.10;99.90;;;;;;5001428;28;20040;-74
2022/04/30 01:06:51;;;;;;;5.05;3.30;;;18.10;99.90;;;;;;5019590;28;20033;-74
2022/04/30 01:09:20;;;;;;;6.65;2.90;;;18.20;99.90;;;;;;5017673;28;20038;-73
2022/04/30 01:11:49;;;;;;;5.97;3.75;;;18.20;99.90;;;;;;5020260;28;20053;-75
2022/04/30 01:14:17;;;;;;;5.40;3.20;;;18.20;99.90;;;;;;5022093;28;20377;-74
2022/04/30 01:16:44;;;;;;;6.47;3.10;;;18.20;99.90;;;;;;5003764;28;20583;-74
2022/04/30 01:19:20;;;;;;;4.60;3.15;;;18.20;99.90;;;;;;5001025;28;20045;-73
2022/04/30 01:21:56;;;;;;;4.35;2.85;;;18.20;99.90;;;;;;5008910;28;20144;-73
2022/04/30 01:24:24;;;;;;;5.43;3.33;;;18.30;99.90;;;;;;5016294;28;20977;-74
2022/04/30 01:26:55;;;;;;;6.38;3.53;;;18.30;99.90;;;;;;5018030;28;20367;-74
2022/04/30 01:29:23;;;;;;;6.45;3.60;;;18.30;99.90;;;;;;5001638;28;20056;-73
2022/04/30 01:37:25;;;;;;;8.60;3.65;;;18.20;99.90;;;;;;5020116;28;20044;-74
2022/04/30 01:40:04;;;;;;;5.53;3.35;;;18.20;99.90;;;;;;5016061;28;20029;-74
2022/04/30 01:42:37;;;;;;;8.45;3.33;;;18.10;99.90;;;;;;5014094;28;20034;-74
2022/04/30 01:45:04;;;;;;;6.97;3.65;;;18.10;99.90;;;;;;5004123;28;20073;-73
2022/04/30 01:47:33;;;;;;;6.07;3.45;;;17.90;99.90;;;;;;5023036;28;20092;-74
2022/04/30 01:50:00;;;;;;;5.50;3.10;;;17.80;99.90;;;;;;5003603;28;20052;-74
2022/04/30 01:52:26;;;;;;;7.20;4.15;;;17.80;99.90;;;;;;5021114;28;20029;-73
2022/04/30 01:54:52;;;;;;;5.55;3.22;;;17.70;99.90;;;;;;5006521;28;20437;-73
2022/04/30 01:57:26;;;;;;;5.45;3.70;;;17.70;99.90;;;;;;5016735;28;20030;-73
2022/04/30 01:59:56;;;;;;;6.32;4.03;;;17.70;99.90;;;;;;5011710;28;20037;-74
2022/04/30 02:02:26;;;;;;;6.28;3.83;;;17.60;99.90;;;;;;5020502;28;20045;-74
2022/04/30 02:04:55;;;;;;;7.13;3.47;;;17.60;99.90;;;;;;5018971;28;20038;-74
2022/04/30 02:07:22;;;;;;;6.78;4.03;;;17.80;99.90;;;;;;5019011;28;20038;-73
2022/04/30 02:09:51;;;;;;;6.05;4.20;;;17.80;99.90;;;;;;5001044;28;20100;-74
2022/04/30 02:12:18;;;;;;;7.13;4.40;;;17.70;99.90;;;;;;5002541;28;20041;-74
2022/04/30 02:14:51;;;;;;;7.93;5.30;;;17.70;99.90;;;;;;5001917;28;20046;-73
2022/04/30 02:17:20;;;;;;;9.75;4.45;;;17.80;99.90;;;;;;5016107;28;20401;-74
2022/04/30 02:22:38;;;;;;;7.95;5.70;;;17.70;99.90;;;;;;5019062;28;20076;-73
2022/04/30 02:25:11;;;;;;;9.10;5.78;;;17.70;99.90;;;;;;5024345;28;20477;-73
2022/04/30 02:27:44;;;;;;;11.63;6.18;;;17.60;99.90;;;;;;5015362;28;20509;-74
2022/04/30 02:30:14;;;;;;;13.43;6.22;;;17.60;99.90;;;;;;4998943;28;20073;-74
2022/04/30 02:32:46;;;;;;;11.15;6.22;;;17.50;99.90;;;;;;5014899;28;20042;-74
2022/04/30 02:35:17;;;;;;;13.53;6.57;;;17.50;99.90;;;;;;5017934;28;20215;-74
2022/04/30 02:37:44;;;;;;;12.93;6.28;;;17.50;99.90;;;;;;5020292;28;20080;-73
2022/04/30 02:40:13;;;;;;;14.80;6.35;;;17.50;99.90;;;;;;5014507;28;20104;-73
2022/04/30 02:42:41;;;;;;;13.68;6.78;;;17.50;99.90;;;;;;5021409;28;20132;-74
2022/04/30 02:45:09;;;;;;;11.00;6.80;;;17.50;99.90;;;;;;5022059;28;20413;-73
2022/04/30 02:47:39;;;;;;;9.52;6.65;;;17.40;99.90;;;;;;5005526;28;20055;-74
2022/04/30 02:50:09;;;;;;;9.20;6.93;;;17.30;99.90;;;;;;5016569;28;20068;-73
2022/04/30 02:52:36;;;;;;;13.98;7.22;;;17.30;99.90;;;;;;5020857;28;20038;-75
2022/04/30 02:55:04;;;;;;;14.43;8.13;;;17.20;99.90;;;;;;5022408;28;20048;-75
2022/04/30 03:00:46;;;;;;;12.25;6.82;;;17.20;99.90;;;;;;5030506;28;20787;-74
2022/04/30 03:03:15;;;;;;;12.27;6.80;;;17.20;99.90;;;;;;5014301;28;20473;-74
2022/04/30 03:05:44;;;;;;;9.80;6.85;;;17.20;99.90;;;;;;5020743;28;20068;-76
2022/04/30 03:08:18;;;;;;;9.88;6.45;;;17.20;99.90;;;;;;5025773;28;20505;-74
2022/04/30 03:10:45;;;;;;;11.27;6.25;;;17.10;99.90;;;;;;5013096;28;20053;-76
2022/04/30 03:13:17;;;;;;;10.20;6.00;;;17.10;99.90;;;;;;4998057;28;20038;-74
2022/04/30 03:15:44;;;;;;;6.75;5.18;;;17.10;99.90;;;;;;5028098;28;20069;-74
2022/04/30 03:23:42;;;;;;;7.78;4.80;;;17.00;99.90;;;;;;5024502;28;20045;-74
2022/04/30 03:26:11;;;;;;;7.70;5.10;;;16.90;99.90;;;;;;4988800;28;20038;-74
2022/04/30 03:28:40;;;;;;;8.60;5.40;;;16.90;99.90;;;;;;5000966;28;20045;-74
2022/04/30 03:31:10;;;;;;;10.07;5.22;;;17.00;99.90;;;;;;5036918;28;20037;-76
2022/04/30 03:33:37;;;;;;;7.80;5.07;;;16.90;99.90;;;;;;5039370;28;20038;-76
2022/04/30 03:36:04;;;;;;;8.35;5.25;;;16.90;99.90;;;;;;5033533;28;20089;-73
2022/04/30 03:38:30;;;;;;;9.07;5.53;;;16.90;99.90;;;;;;5014295;28;20040;-74
2022/04/30 03:40:57;;;;;;;11.68;5.07;;;16.90;99.90;;;;;;5013119;28;20135;-74
2022/04/30 03:43:23;;;;;;;7.13;4.80;;;16.80;99.90;;;;;;5022902;28;20038;-73
2022/04/30 03:45:49;;;;;;;9.80;5.72;;;16.80;99.90;;;;;;5008885;28;20045;-73
2022/04/30 03:48:15;;;;;;;7.40;4.95;;;16.70;99.90;;;;;;5024586;28;20492;-73
2022/04/30 03:50:42;;;;;;;9.77;5.22;;;16.70;99.90;;;;;;5022786;28;20183;-74
2022/04/30 03:53:09;;;;;;;8.75;5.30;;;16.70;99.90;;;;;;5001784;28;20049;-74
2022/04/30 03:55:35;;;;;;;11.95;5.40;;;16.70;99.90;;;;;;5010809;28;20036;-73
2022/04/30 03:58:00;;;;;;;8.32;5.80;;;16.70;99.90;;;;;;5023724;28;20709;-73
2022/04/30 04:00:27;;;;;;;7.25;5.45;;;16.70;99.90;;;;;;5007566;28;20129;-73
2022/04/30 04:02:55;;;;;;;9.00;5.43;;;16.60;99.90;;;;;;5024884;28;20567;-74
2022/04/30 04:05:22;;;;;;;8.80;5.07;;;16.60;99.90;;;;;;5005663;28;20435;-72
2022/04/30 04:07:48;;;;;;;9.15;5.45;;;16.50;99.90;;;;;;5021747;28;20436;-73
2022/04/30 04:10:14;;;;;;;10.25;5.53;;;16.50;99.90;;;;;;5025453;28;20048;-73
2022/04/30 04:12:41;;;;;;;8.48;4.88;;;16.50;99.90;;;;;;5021564;28;20124;-74
2022/04/30 04:17:55;;;;;;;9.85;5.68;;;16.60;99.90;;;;;;5022034;28;20052;-74
2022/04/30 04:20:30;;;;;;;8.15;5.15;;;16.50;99.90;;;;;;5006602;28;20038;-74
2022/04/30 04:22:56;;;;;;;10.45;5.45;;;16.50;99.90;;;;;;5022962;28;20042;-73
2022/04/30 04:28:07;;;;;;;9.85;5.05;;;16.50;99.90;;;;;;5018238;28;20080;-74
2022/04/30 04:30:34;;;;;;;7.00;4.72;;;16.60;99.90;;;;;;5008629;28;20129;-73
2022/04/30 04:33:00;;;;;;;11.80;5.20;;;16.40;99.90;;;;;;5007822;28;20037;-74
2022/04/30 04:35:29;;;;;;;7.95;5.10;;;16.50;99.90;;;;;;5021272;28;20040;-74
2022/04/30 04:37:55;;;;;;;14.73;6.07;;;16.50;99.90;;;;;;5019667;28;20049;-74
2022/04/30 04:40:22;;;;;;;8.38;5.10;;;16.50;99.90;;;;;;5006125;28;20041;-73
2022/04/30 04:42:48;;;;;;;9.18;4.95;;;16.50;99.90;;;;;;5000071;28;20049;-73
2022/04/30 04:45:14;;;;;;;10.13;5.30;;;16.50;99.90;;;;;;5002135;28;20053;-73
2022/04/30 04:47:42;;;;;;;9.43;4.88;;;16.50;99.90;;;;;;5021050;28;20091;-74
2022/04/30 04:50:13;;;;;;;10.20;5.00;;;16.50;99.90;;;;;;5022206;28;20045;-74
2022/04/30 04:52:40;;;;;;;10.18;5.07;;;16.50;99.90;;;;;;5001795;28;20068;-74
2022/04/30 04:55:07;;;;;;;7.93;4.82;;;16.50;99.90;;;;;;5018597;28;20666;-73
2022/04/30 04:57:33;;;;;;;8.43;4.85;;;16.50;99.90;;;;;;5022363;28;20042;-74
2022/04/30 04:59:59;;;;;;;8.82;5.22;;;16.50;99.90;;;;;;5017665;28;20049;-74
2022/04/30 05:02:25;;;;;;;7.32;4.75;;;16.50;99.90;;;;;;5001346;28;20493;-73
2022/04/30 05:04:51;;;;;;;10.77;5.55;;;16.40;99.90;;;;;;5000511;28;20192;-73
2022/04/30 05:07:17;;;;;;;8.88;5.07;;;16.50;99.90;;;;;;5004743;28;20130;-74
2022/04/30 05:09:43;;;;;;;9.43;4.90;;;16.40;99.90;;;;;;5016490;28;20473;-74
2022/04/30 05:12:09;;;;;;;8.07;4.90;;;16.50;99.90;;;;;;5017569;28;20136;-74
2022/04/30 05:14:36;;;;;;;9.43;4.95;;;16.50;99.90;;;;;;5021512;28;20038;-73
2022/04/30 05:17:04;;;;;;;7.70;5.40;;;16.50;99.90;;;;;;4994851;28;20034;-74
2022/04/30 05:19:30;;;;;;;8.13;5.00;;;16.50;99.90;;;;;;5009210;28;20034;-74
2022/04/30 05:21:56;;;;;;;11.13;5.40;;;16.60;99.90;;;;;;5020709;28;20045;-75
2022/04/30 05:24:22;;;;;;;9.55;5.20;;;16.70;99.90;;;;;;5007187;28;20088;-74
2022/04/30 05:26:48;;;;;;;8.38;4.82;;;16.80;99.90;;;;;;5011123;28;20037;-74
2022/04/30 05:29:15;;;;;;;8.25;4.65;;;16.90;99.90;;;;;;5018858;28;20038;-74
2022/04/30 05:31:42;;;;;;;11.80;4.85;;;17.00;99.90;;;;;;5009386;28;20089;-74
2022/04/30 05:34:08;;;;;;;7.18;4.50;;;17.10;99.90;;;;;;5020631;28;20082;-73
2022/04/30 05:36:35;;;;;;;6.88;4.22;;;17.20;99.90;;;;;;4988037;28;20089;-73
2022/04/30 05:39:01;;;;;;;8.55;4.78;;;17.30;99.90;;;;;;5019812;28;20038;-73
2022/04/30 05:41:28;;;;;;;7.18;3.95;;;17.30;99.90;;;;;;5021298;28;20060;-73
2022/04/30 05:43:55;;;;;;;9.43;4.30;;;17.40;99.90;;;;;;5020051;28;20382;-72
2022/04/30 05:46:21;;;;;;;5.90;4.15;;;17.50;99.90;;;;;;5010384;28;20064;-74
2022/04/30 05:48:48;;;;;;;9.20;4.22;;;17.50;99.90;;;;;;5024770;28;20045;-75
2022/04/30 05:51:14;;;;;;;9.45;4.50;;;17.60;99.90;;;;;;5010809;28;20034;-73
2022/04/30 05:53:41;;;;;;;7.90;3.95;;;17.70;99.90;;;;;;5020294;28;20527;-73
2022/04/30 05:56:07;;;;;;;8.73;4.28;;;17.60;99.90;;;;;;5020658;28;20030;-73
2022/04/30 05:58:34;;;;;;;8.15;4.30;;;17.70;99.90;;;;;;5012610;28;20041;-73
2022/04/30 06:01:00;;;;;;;10.75;7.22;;;17.70;99.90;;;;;;5006828;28;20034;-73
2022/04/30 06:03:28;;;;;;;13.55;5.45;;;17.70;99.90;;;;;;5007540;28;20041;-74
2022/04/30 06:05:54;;;;;;;10.38;5.28;;;17.80;99.90;;;;;;5028130;28;20393;-75
2022/04/30 06:08:20;;;;;;;9.93;5.30;;;17.80;99.90;;;;;;5019023;28;20057;-76
2022/04/30 06:10:46;;;;;;;10.85;5.05;;;17.80;99.90;;;;;;5020955;28;20073;-74
2022/04/30 06:13:13;;;;;;;8.88;4.80;;;17.90;99.90;;;;;;5020461;28;20038;-74
2022/04/30 06:15:38;;;;;;;7.85;4.93;;;17.80;99.90;;;;;;5005515;28;20048;-74
2022/04/30 06:18:05;;;;;;;12.50;5.22;;;17.90;99.90;;;;;;5021276;28;20037;-73
2022/04/30 06:20:32;;;;;;;9.95;4.80;;;17.90;99.90;;;;;;5018889;28;20065;-74
2022/04/30 06:22:59;;;;;;;8.35;5.32;;;18.00;99.90;;;;;;5002824;28;20484;-75
2022/04/30 06:25:26;;;;;;;8.77;5.15;;;18.10;99.90;;;;;;5002205;28;20064;-73
2022/04/30 06:27:51;;;;;;;7.45;4.88;;;18.10;99.90;;;;;;5022223;28;20069;-74
2022/04/30 06:30:18;;;;;;;9.63;5.30;;;18.30;99.90;;;;;;5006781;28;20507;-74
2022/04/30 06:32:44;;;;;;;8.35;4.88;;;18.40;99.90;;;;;;5012396;28;20501;-75
2022/04/30 06:35:10;;;;;;;9.57;4.80;;;18.50;99.90;;;;;;5020467;28;20115;-74
2022/04/30 06:37:36;;;;;;;7.15;4.30;;;18.60;99.90;;;;;;5023287;28;20050;-74
2022/04/30 06:40:02;;;;;;;9.23;5.07;;;18.70;99.90;;;;;;5003877;28;20128;-73
2022/04/30 06:42:41;;;;;;;6.82;4.47;;;18.80;99.90;;;;;;5023092;28;20451;-74
2022/04/30 06:45:10;;;;;;;7.18;4.90;;;19.00;99.90;;;;;;5021428;28;20049;-74
2022/04/30 06:47:37;;;;;;;9.68;5.40;;;19.10;99.90;;;;;;5026001;28;20061;-73
2022/04/30 06:50:03;;;;;;;8.48;5.38;;;19.20;99.90;;;;;;5011154;28;20038;-74
2022/04/30 06:52:30;;;;;;;10.15;5.43;;;19.30;99.90;;;;;;5013024;28;20041;-73
2022/04/30 06:57:46;;;;;;;7.47;5.55;;;19.50;99.90;;;;;;5023743;28;20041;-74
2022/04/30 07:02:57;;;;;;;9.98;5.50;;;19.60;99.90;;;;;;5018910;28;20650;-74
2022/04/30 07:05:24;;;;;;;7.93;5.30;;;19.60;99.90;;;;;;5026736;28;20527;-73
2022/04/30 07:07:50;;;;;;;11.50;5.13;;;19.70;99.90;;;;;;5024142;28;20037;-76
2022/04/30 07:10:16;;;;;;;9.02;5.60;;;19.80;99.90;;;;;;5019544;28;20123;-74
2022/04/30 07:12:41;;;;;;;8.18;5.47;;;19.90;99.90;;;;;;5023705;28;20052;-74
2022/04/30 07:15:08;;;;;;;9.70;5.70;;;20.00;99.90;;;;;;5005818;28;20045;-74
2022/04/30 07:17:34;;;;;;;13.40;6.07;;;20.00;99.90;;;;;;5002670;28;20034;-74
2022/04/30 07:20:01;;;;;;;11.77;5.60;;;20.00;99.90;;;;;;5001549;28;20625;-74
2022/04/30 07:22:26;;;;;;;14.95;6.40;;;20.10;99.90;;;;;;5025920;28;20030;-74
2022/04/30 07:24:55;;;;;;;9.27;6.10;;;20.10;99.90;;;;;;5022146;28;20056;-73
2022/04/30 07:27:21;;;;;;;7.80;5.38;;;20.20;99.90;;;;;;5022538;28;20120;-75
2022/04/30 07:29:48;;;;;;;13.93;5.70;;;20.20;99.90;;;;;;5020219;28;20060;-74
2022/04/30 07:32:14;;;;;;;8.63;5.93;;;20.20;99.90;;;;;;5004660;28;20037;-74
2022/04/30 07:34:40;;;;;;;11.70;5.93;;;20.20;99.90;;;;;;5024049;28;20132;-74
2022/04/30 07:37:10;;;;;;;8.27;5.50;;;20.30;99.90;;;;;;5005609;28;20029;-75
2022/04/30 07:39:38;;;;;;;12.02;5.80;;;20.40;99.90;;;;;;5009997;28;20061;-73
2022/04/30 07:42:05;;;;;;;10.40;5.80;;;20.40;99.90;;;;;;5028473;28;20083;-74
2022/04/30 07:44:31;;;;;;;10.10;5.60;;;20.50;99.90;;;;;;5027143;28;20041;-76
2022/04/30 07:46:58;;;;;;;10.02;5.70;;;20.50;99.90;;;;;;5022393;28;20521;-74
2022/04/30 07:49:25;;;;;;;10.23;5.72;;;20.60;99.90;;;;;;5022451;28;20033;-74
2022/04/30 07:51:57;;;;;;;8.27;5.03;;;20.70;99.80;;;;;;5008380;28;20049;-73
2022/04/30 07:54:24;;;;;;;9.60;5.28;;;20.80;99.80;;;;;;5020554;28;20069;-74
2022/04/30 07:56:55;;;;;;;7.70;4.82;;;21.00;99.50;;;;;;5004068;28;20034;-76
2022/04/30 07:59:22;;;;;;;9.48;5.18;;;21.00;99.40;;;;;;5002609;28;20045;-74
2022/04/30 08:01:50;;;;;;;9.75;5.68;;;21.10;99.30;;;;;;5012132;28;20037;-75
2022/04/30 08:04:16;;;;;;;11.15;5.88;;;21.20;99.10;;;;;;5007967;28;20063;-75
2022/04/30 08:06:43;;;;;;;8.68;5.90;;;21.30;99.00;;;;;;5001918;28;20038;-75
2022/04/30 08:09:10;;;;;;;9.20;5.70;;;21.30;98.90;;;;;;5020381;28;20033;-75
2022/04/30 08:11:36;;;;;;;9.45;5.45;;;21.30;98.80;;;;;;5008654;28;20124;-74
2022/04/30 08:14:02;;;;;;;9.90;5.82;;;21.30;98.90;;;;;;4988446;28;20121;-75
2022/04/30 08:16:28;;;;;;;11.38;5.28;;;21.50;98.60;;;;;;5010638;28;20432;-74
2022/04/30 08:18:58;;;;;;;9.40;5.43;;;21.60;98.40;;;;;;5003865;28;20044;-74
2022/04/30 08:21:26;;;;;;;14.25;6.43;;;21.80;98.20;;;;;;5017136;28;20034;-75
2022/04/30 08:23:52;;;;;;;9.60;5.65;;;21.90;98.00;;;;;;5022304;28;20069;-76
2022/04/30 08:26:19;;;;;;;9.48;5.13;;;22.00;97.60;;;;;;5021776;28;20040;-75
2022/04/30 08:28:45;;;;;;;9.45;5.03;;;22.00;97.20;;;;;;5004373;28;20045;-74
2022/04/30 08:31:12;;;;;;;9.95;5.75;;;21.90;97.20;;;;;;5021682;28;20092;-75
2022/04/30 08:33:38;;;;;;;9.82;5.85;;;22.50;96.70;;;;;;5016940;28;20034;-75
2022/04/30 08:36:06;;;;;;;8.65;6.28;;;23.10;96.00;;;;;;5025316;28;20060;-75
2022/04/30 08:38:33;;;;;;;10.10;5.60;;;23.90;95.10;;;;;;5006953;28;20033;-75
2022/04/30 08:41:00;;;;;;;9.32;6.70;;;24.30;94.60;;;;;;5022165;28;20094;-76
2022/04/30 08:43:28;;;;;;;11.57;6.40;;;24.30;94.40;;;;;;5017068;28;20057;-75
2022/04/30 08:45:54;;;;;;;12.63;6.80;;;24.10;94.30;;;;;;5003215;28;20034;-73
2022/04/30 08:48:20;;;;;;;8.40;6.43;;;24.50;93.90;;;;;;5001325;28;20565;-73
2022/04/30 08:50:48;;;;;;;14.85;6.55;;;24.90;93.60;;;;;;5015727;28;20132;-74
2022/04/30 08:53:14;;;;;;;9.43;6.00;;;25.20;93.10;;;;;;5004962;28;20397;-75
2022/04/30 08:55:41;;;;;;;14.23;7.35;;;25.60;92.70;;;;;;5007956;28;20175;-74
2022/04/30 08:58:08;;;;;;;10.13;7.13;;;26.10;92.60;;;;;;5020970;28;20048;-75
2022/04/30 09:00:42;;;;;;;12.18;6.78;;;26.60;91.80;;;;;;4983820;28;20041;-75
2022/04/30 09:03:13;;;;;;;9.32;7.18;;;27.20;91.70;;;;;;4997099;28;20564;-75
2022/04/30 09:05:38;;;;;;;8.77;7.45;;;26.90;91.30;;;;;;4991358;28;20038;-74
2022/04/30 09:08:05;;;;;;;15.23;9.73;;;26.70;91.40;;;;;;4983857;28;20060;-74
2022/04/30 09:10:33;;;;;;;14.55;8.20;;;26.80;91.70;;;;;;4990965;28;20049;-74
2022/04/30 09:13:13;;;;;;;12.32;8.80;;;27.10;91.90;;;;;;4990739;28;20034;-73
2022/04/30 09:15:42;;;;;;;10.70;7.93;;;26.90;91.40;;;;;;5006758;28;20041;-76
2022/04/30 09:18:08;;;;;;;14.40;8.30;;;26.60;91.90;;;;;;5007298;28;20046;-75
2022/04/30 09:20:49;;;;;;;11.23;7.53;;;27.50;91.70;;;;;;4989824;28;20045;-75
2022/04/30 09:23:30;;;;;;;9.80;7.82;;;27.00;91.90;;;;;;5011765;28;20381;-75
2022/04/30 09:25:58;;;;;;;10.00;6.15;;;25.60;92.70;;;;;;5024048;28;20061;-76
2022/04/30 09:28:30;;;;;;;11.85;6.38;;;25.40;92.10;;;;;;5006985;28;20025;-77
2022/04/30 09:31:09;;;;;;;7.25;5.95;;;25.20;92.50;;;;;;5010084;28;20166;-75
2022/04/30 09:33:37;;;;;;;9.07;5.75;;;25.30;92.30;;;;;;5005371;28;20493;-75
2022/04/30 09:38:51;;;;;;;10.98;5.03;;;25.50;92.10;;;;;;5020070;28;20110;-75
2022/04/30 09:41:26;;;;;;;10.27;5.05;;;25.60;91.70;;;;;;5001450;28;20436;-75
2022/04/30 09:44:22;;;;;;;9.43;5.45;;;24.60;92.20;;;;;;5004500;28;20052;-75
2022/04/30 09:46:49;;;;;;;9.73;5.20;;;24.90;92.00;;;;;;5003269;28;20048;-74
2022/04/30 09:54:46;;;;;;;8.35;5.90;;;25.30;92.90;;;;;;5021452;28;20080;-76
2022/04/30 09:57:15;;;;;;;10.48;6.22;;;25.50;92.20;;;;;;5008436;28;20038;-75
2022/04/30 09:59:42;;;;;;;8.38;6.07;;;25.60;92.40;;;;;;5010949;28;20037;-76
2022/04/30 10:02:09;;;;;;;11.82;6.55;;;26.00;92.20;;;;;;5005352;28;20034;-75
2022/04/30 10:04:36;;;;;;;10.30;6.68;;;24.60;92.70;;;;;;5009568;28;20029;-75
2022/04/30 10:07:05;;;;;;;10.20;5.47;;;24.80;92.80;;;;;;4999542;28;20037;-75
2022/04/30 10:09:38;;;;;;;10.02;5.85;;;25.40;92.30;;;;;;5015634;28;20038;-78
2022/04/30 10:12:11;;;;;;;7.65;5.45;;;25.70;92.20;;;;;;5006015;28;20038;-74
2022/04/30 10:14:56;;;;;;;8.90;5.95;;;25.80;91.70;;;;;;5018047;28;20046;-76
2022/04/30 10:17:25;;;;;;;10.27;5.60;;;25.70;92.00;;;;;;4998267;28;20092;-75
2022/04/30 10:20:07;;;;;;;9.82;5.82;;;26.10;91.90;;;;;;5003675;28;20103;-75
2022/04/30 10:22:35;;;;;;;8.77;6.65;;;26.40;91.60;;;;;;5005671;28;20044;-76
2022/04/30 10:25:03;;;;;;;11.82;6.97;;;26.70;91.80;;;;;;5020652;28;20034;-74
2022/04/30 10:27:44;;;;;;;15.15;6.22;;;26.70;91.50;;;;;;5007859;28;20466;-73
2022/04/30 10:30:24;;;;;;;10.47;6.20;;;26.40;91.60;;;;;;5020797;28;20468;-75
2022/04/30 10:33:06;;;;;;;9.63;6.03;;;25.30;92.20;;;;;;5018429;28;20385;-74
2022/04/30 10:35:36;;;;;;;;;;;25.30;92.20;;;;;;5022993;28;20069;-75
2022/04/30 10:38:11;;;;;;;8.23;5.38;;;25.30;92.40;;;;;;4999840;28;19923;-75
2022/04/30 10:40:39;;;;;;;7.75;5.32;;;25.50;91.90;;;;;;5002102;28;20168;-74
2022/04/30 10:43:18;;;;;;;7.68;5.47;;;25.80;91.90;;;;;;5009775;28;20060;-75
2022/04/30 10:45:45;;;;;;;6.72;4.07;;;25.40;91.70;;;;;;5016872;28;20044;-75
2022/04/30 10:48:11;;;;;;;10.20;3.85;;;24.60;91.80;;;;;;5008986;28;20625;-74
2022/04/30 10:50:38;;;;;;;8.32;4.28;;;25.20;91.70;;;;;;5003404;28;20144;-74
2022/04/30 10:53:10;;;;;;;10.90;4.82;;;25.50;92.00;;;;;;5005360;28;20042;-74
2022/04/30 10:55:38;;;;;;;9.02;4.80;;;25.90;91.70;;;;;;5027546;28;20041;-75
2022/04/30 10:58:04;;;;;;;11.45;5.43;;;24.70;92.50;;;;;;5024057;28;20045;-75
2022/04/30 11:00:30;;;;;;;7.03;4.65;;;25.00;92.50;;;;;;5003381;28;20048;-75
2022/04/30 11:03:10;;;;;;;6.18;3.92;;;24.80;92.30;;;;;;5002248;28;20041;-75
2022/04/30 11:05:36;;;;;;;9.95;4.05;;;25.30;91.90;;;;;;5025625;28;20048;-72
2022/04/30 11:08:06;;;;;;;9.20;4.05;;;24.90;91.80;;;;;;4995387;28;20042;-75
2022/04/30 11:10:32;;;;;;;5.82;4.20;;;24.30;92.40;;;;;;5010706;28;20045;-74
2022/04/30 11:13:06;;;;;;;8.45;4.40;;;24.00;92.70;;;;;;5026353;28;20065;-75
2022/04/30 11:15:33;;;;;;;10.05;4.22;;;24.00;92.60;;;;;;5006825;28;20040;-75
2022/04/30 11:18:01;;;;;;;12.50;5.18;;;24.70;92.50;;;;;;5012943;28;20022;-74
2022/04/30 11:20:27;;;;;;;7.95;4.97;;;24.50;92.60;;;;;;5003729;28;20423;-74
2022/04/30 11:22:58;;;;;;;7.22;4.40;;;24.70;92.50;;;;;;5015450;28;20156;-74
2022/04/30 11:25:35;;;;;;;10.68;4.88;;;23.80;92.40;;;;;;5013234;28;20137;-74
2022/04/30 11:28:08;;;;;;;9.20;5.03;;;23.90;92.90;;;;;;5010237;28;20056;-74
2022/04/30 11:30:41;;;;;;;7.10;4.60;;;23.20;93.40;;;;;;5011656;28;20045;-74
2022/04/30 11:33:08;;;;;;;8.45;5.22;;;23.70;93.80;;;;;;5024774;28;20048;-74
2022/04/30 11:35:35;;;;;;;9.43;5.55;;;24.00;93.40;;;;;;5025600;28;20040;-75
2022/04/30 11:38:02;;;;;;;8.07;5.38;;;24.00;93.30;;;;;;5028561;28;20116;-74
2022/04/30 11:40:32;;;;;;;10.00;5.45;;;23.80;94.10;;;;;;5024423;28;20049;-74
2022/04/30 11:42:59;;;;;;;9.63;5.15;;;24.60;93.80;;;;;;5006320;28;20105;-74
2022/04/30 11:45:30;;;;;;;11.38;5.15;;;23.70;94.20;;;;;;5010178;28;20045;-76
2022/04/30 11:48:00;;;;;;;9.15;5.00;;;22.40;95.40;;;;;;5009570;28;20045;-74
2022/04/30 11:50:30;;;;;;;9.57;4.72;;;22.60;95.10;;;;;;5016287;28;20128;-74
2022/04/30 11:52:57;;;;;;;8.88;4.70;;;23.20;95.30;;;;;;4988298;28;20072;-75
2022/04/30 11:55:23;;;;;;;10.35;3.88;;;24.10;94.30;;;;;;5008157;28;20080;-74
2022/04/30 11:57:50;;;;;;;12.55;3.95;;;24.50;93.90;;;;;;4993930;28;20037;-73
2022/04/30 12:00:18;;;;;;;10.68;4.80;;;24.40;93.30;;;;;;4990877;28;20046;-74
2022/04/30 12:02:49;;;;;;;6.75;3.53;;;23.50;94.00;;;;;;5014380;28;20115;-74
2022/04/30 12:05:16;;;;;;;8.73;3.65;;;24.10;93.60;;;;;;4977788;28;20069;-74
2022/04/30 12:07:47;;;;;;;10.10;3.95;;;25.10;93.40;;;;;;5011352;28;20147;-73
2022/04/30 12:10:23;;;;;;;7.47;3.20;;;24.80;92.90;;;;;;5012550;28;20146;-74
2022/04/30 12:12:52;;;;;;;9.63;3.30;;;24.70;93.10;;;;;;5019569;28;20392;-75
2022/04/30 12:15:26;;;;;;;6.47;3.20;;;24.60;93.20;;;;;;5012292;28;20128;-73
2022/04/30 12:26:38;;;;;;;7.70;3.53;;;24.40;93.30;;;;;;5003329;28;20401;-73
2022/04/30 12:29:22;;;;;;;9.65;3.92;;;24.40;93.60;;;;;;4988981;28;20038;-74
2022/04/30 12:31:51;;;;;;;7.85;3.90;;;24.90;93.40;;;;;;5010761;28;20197;-75
2022/04/30 12:34:19;;;;;;;9.90;4.65;;;25.30;93.20;;;;;;4997366;28;20571;-74
2022/04/30 12:36:59;;;;;;;9.25;4.50;;;25.60;92.80;;;;;;4991283;28;20030;-74
2022/04/30 12:39:27;;;;;;;8.93;4.32;;;23.60;93.60;;;;;;5013469;28;20097;-74
2022/04/30 12:41:57;;;;;;;7.78;3.75;;;23.60;94.00;;;;;;5005412;28;20182;-75
2022/04/30 12:44:25;;;;;;;10.90;5.50;;;23.40;93.90;;;;;;4989143;28;20034;-73
2022/04/30 12:46:51;;;;;;;9.68;4.88;;;24.50;94.10;;;;;;5005290;28;20228;-75
2022/04/30 12:49:18;;;;;;;9.63;4.38;;;24.80;93.40;;;;;;5005983;28;20041;-75
2022/04/30 12:51:46;;;;;;;11.35;4.95;;;23.80;93.90;;;;;;4993768;28;20026;-75
2022/04/30 12:54:16;;;;;;;9.65;3.83;;;24.70;93.60;;;;;;4991417;28;20095;-77
2022/04/30 12:56:43;;;;;;;8.27;4.25;;;24.90;92.70;;;;;;4989543;28;20113;-75
2022/04/30 12:59:11;;;;;;;9.48;4.20;;;23.50;93.10;;;;;;5005688;28;20046;-73
2022/04/30 13:01:39;;;;;;;9.48;3.45;;;24.30;93.20;;;;;;4990969;28;20096;-75
2022/04/30 13:04:06;;;;;;;9.63;3.92;;;24.30;93.20;;;;;;4986642;28;20153;-73
2022/04/30 13:06:35;;;;;;;7.57;3.90;;;23.60;93.70;;;;;;4999004;28;20033;-74
2022/04/30 13:14:32;;;;;;;7.40;4.20;;;25.10;93.00;;;;;;5012557;28;20048;-74
2022/04/30 13:17:00;;;;;;;8.90;3.47;;;24.80;93.20;;;;;;5020502;28;20061;-75
2022/04/30 13:19:26;;;;;;;7.78;3.65;;;24.50;93.70;;;;;;5009194;28;20037;-74
2022/04/30 13:21:52;;;;;;;7.63;3.60;;;24.50;93.70;;;;;;5012515;28;20421;-74
2022/04/30 13:24:19;;;;;;;6.97;3.78;;;24.50;93.50;;;;;;5014820;28;20116;-75
2022/04/30 13:26:45;;;;;;;8.00;3.40;;;25.20;93.30;;;;;;5023944;28;20069;-75
2022/04/30 13:29:13;;;;;;;5.70;3.50;;;24.00;93.60;;;;;;5020043;28;20034;-77
2022/04/30 13:31:39;;;;;;;7.45;3.80;;;23.80;94.00;;;;;;5005011;28;20049;-76
2022/04/30 13:34:08;;;;;;;7.57;3.40;;;24.60;93.90;;;;;;5021826;28;20038;-74
2022/04/30 13:36:42;;;;;;;6.38;3.20;;;24.90;93.10;;;;;;4992248;28;20485;-76
2022/04/30 13:39:09;;;;;;;9.38;3.10;;;24.50;93.30;;;;;;5005986;28;20411;-75
2022/04/30 13:41:35;;;;;;;7.10;3.30;;;25.30;93.00;;;;;;4992527;28;20038;-74